createdAt,value
2019-01-14T00:00:42.536Z,3.00
2019-01-14T00:03:13.300Z,3.00
2019-01-14T00:05:43.866Z,3.00
2019-01-14T00:08:13.165Z,2.90
2019-01-14T00:10:43.023Z,2.90
2019-01-14T00:13:12.850Z,2.90
2019-01-14T00:15:42.335Z,2.80
2019-01-14T00:18:12.513Z,2.80
2019-01-14T00:20:42.790Z,2.80
2019-01-14T00:23:12.603Z,2.80
2019-01-14T00:25:44.052Z,2.80
2019-01-14T00:28:14.707Z,2.80
2019-01-14T00:30:45.709Z,3.00
2019-01-14T00:33:15.207Z,3.10
2019-01-14T00:35:44.470Z,3.10
2019-01-14T00:38:13.684Z,3.20
2019-01-14T00:40:43.381Z,3.20
2019-01-14T00:43:14.049Z,3.30
2019-01-14T00:45:43.868Z,3.30
2019-01-14T00:48:13.639Z,3.20
2019-01-14T00:50:42.657Z,3.20
2019-01-14T00:53:16.970Z,3.20
2019-01-14T00:55:48.143Z,3.30
2019-01-14T00:58:17.132Z,3.40
2019-01-14T01:00:46.629Z,3.40
2019-01-14T01:03:22.321Z,3.30
2019-01-14T01:05:51.267Z,3.30
2019-01-14T01:08:20.578Z,3.30
2019-01-14T01:10:49.617Z,3.30
2019-01-14T01:13:18.651Z,3.30
2019-01-14T01:15:49.825Z,3.40
2019-01-14T01:18:18.837Z,3.40
2019-01-14T01:20:47.898Z,3.40
2019-01-14T01:23:18.566Z,3.40
2019-01-14T01:25:47.951Z,3.50
2019-01-14T01:28:17.313Z,3.50
2019-01-14T01:30:46.533Z,3.60
2019-01-14T01:33:15.689Z,3.60
2019-01-14T01:35:46.332Z,3.60
2019-01-14T01:38:15.749Z,3.60
2019-01-14T01:40:44.762Z,3.60
2019-01-14T01:43:14.006Z,3.60
2019-01-14T01:45:43.962Z,3.70
2019-01-14T01:48:16.104Z,3.70
2019-01-14T01:50:45.192Z,3.70
2019-01-14T01:53:14.216Z,3.70
2019-01-14T01:55:43.442Z,3.70
2019-01-14T01:58:12.355Z,3.70
2019-01-14T02:00:41.730Z,3.70
2019-01-14T02:03:11.149Z,3.60
2019-01-14T02:05:40.525Z,3.50
2019-01-14T02:08:11.804Z,3.40
2019-01-14T02:10:40.793Z,3.30
2019-01-14T02:13:10.224Z,3.20
2019-01-14T02:15:39.171Z,3.20
2019-01-14T02:18:08.545Z,3.10
2019-01-14T02:20:37.830Z,3.10
2019-01-14T02:23:07.417Z,3.10
2019-01-14T02:25:36.473Z,3.00
2019-01-14T02:28:09.885Z,3.00
2019-01-14T02:30:39.469Z,3.00
2019-01-14T02:33:14.045Z,3.10
2019-01-14T02:35:43.473Z,3.10
2019-01-14T02:38:13.356Z,3.10
2019-01-14T02:40:42.723Z,3.00
2019-01-14T02:43:11.724Z,3.00
2019-01-14T02:45:40.766Z,3.00
2019-01-14T02:48:09.789Z,2.90
2019-01-14T02:50:42.928Z,2.90
2019-01-14T02:53:12.636Z,2.80
2019-01-14T02:55:42.874Z,2.70
2019-01-14T02:58:12.075Z,2.70
2019-01-14T03:00:41.831Z,2.60
2019-01-14T03:03:11.213Z,2.50
2019-01-14T03:05:40.669Z,2.50
2019-01-14T03:08:10.105Z,2.40
2019-01-14T03:10:43.392Z,2.40
2019-01-14T03:13:12.762Z,2.30
2019-01-14T03:15:42.098Z,2.20
2019-01-14T03:18:11.476Z,2.20
2019-01-14T03:20:40.582Z,2.10
2019-01-14T03:23:09.679Z,2.10
2019-01-14T03:25:38.662Z,2.00
2019-01-14T03:28:08.213Z,2.10
2019-01-14T03:30:37.190Z,2.10
2019-01-14T03:33:11.876Z,2.00
2019-01-14T03:35:40.864Z,2.00
2019-01-14T03:38:09.879Z,1.90
2019-01-14T03:40:38.955Z,1.80
2019-01-14T03:43:13.978Z,1.70
2019-01-14T03:45:43.418Z,1.70
2019-01-14T03:48:12.701Z,1.70
2019-01-14T03:50:42.258Z,1.70
2019-01-14T03:53:13.375Z,1.70
2019-01-14T03:55:42.783Z,1.80
2019-01-14T03:58:19.554Z,1.80
2019-01-14T04:00:49.734Z,1.90
2019-01-14T04:03:30.821Z,1.90
2019-01-14T04:06:01.182Z,2.00
2019-01-14T04:08:34.496Z,1.90
2019-01-14T04:11:03.919Z,1.90
2019-01-14T04:13:34.173Z,1.80
2019-01-14T04:16:03.706Z,1.80
2019-01-14T04:18:35.217Z,1.80
2019-01-14T04:21:04.315Z,1.70
2019-01-14T04:23:39.414Z,1.70
2019-01-14T04:26:09.194Z,1.80
2019-01-14T04:28:42.298Z,1.80
2019-01-14T04:31:13.308Z,1.90
2019-01-14T04:33:44.471Z,1.80
2019-01-14T04:36:15.151Z,1.70
2019-01-14T04:38:44.593Z,1.70
2019-01-14T04:41:16.124Z,1.60
2019-01-14T04:43:45.938Z,1.70
2019-01-14T04:46:14.933Z,1.80
2019-01-14T04:48:44.410Z,1.90
2019-01-14T04:51:14.545Z,1.80
2019-01-14T04:53:44.486Z,1.70
2019-01-14T04:56:15.371Z,1.70
2019-01-14T04:58:46.003Z,1.70
2019-01-14T05:01:15.982Z,1.80
2019-01-14T05:03:45.260Z,1.90
2019-01-14T05:06:16.143Z,2.00
2019-01-14T05:08:45.254Z,2.00
2019-01-14T05:11:14.623Z,2.10
2019-01-14T05:13:44.846Z,2.20
2019-01-14T05:16:20.664Z,2.30
2019-01-14T05:18:51.389Z,2.30
2019-01-14T05:21:20.876Z,2.40
2019-01-14T05:23:55.078Z,2.30
2019-01-14T05:26:24.151Z,2.20
2019-01-14T05:28:53.097Z,2.10
2019-01-14T05:31:22.936Z,2.10
2019-01-14T05:33:52.275Z,2.10
2019-01-14T05:36:21.231Z,2.00
2019-01-14T05:38:50.247Z,2.00
2019-01-14T05:41:20.071Z,1.80
2019-01-14T05:43:49.625Z,1.60
2019-01-14T05:46:20.052Z,1.30
2019-01-14T05:48:49.395Z,1.10
2019-01-14T05:51:20.020Z,1.10
2019-01-14T05:53:50.796Z,1.10
2019-01-14T05:56:20.533Z,1.10
2019-01-14T05:58:50.513Z,1.10
2019-01-14T06:01:20.719Z,1.20
2019-01-14T06:04:20.677Z,1.30
2019-01-14T06:06:49.938Z,1.30
2019-01-14T06:09:19.493Z,1.20
2019-01-14T06:11:48.377Z,1.20
2019-01-14T06:14:22.768Z,1.20
2019-01-14T06:16:53.719Z,1.20
2019-01-14T06:19:26.883Z,1.20
2019-01-14T06:22:00.528Z,1.30
2019-01-14T06:24:43.539Z,1.20
2019-01-14T06:27:15.016Z,1.20
2019-01-14T06:29:45.589Z,1.20
2019-01-14T06:32:14.907Z,1.30
2019-01-14T06:34:49.399Z,1.40
2019-01-14T06:37:20.112Z,1.40
2019-01-14T06:39:49.370Z,1.30
2019-01-14T06:42:19.295Z,1.30
2019-01-14T06:44:48.334Z,1.30
2019-01-14T06:47:17.537Z,1.30
2019-01-14T06:49:46.517Z,1.30
2019-01-14T06:52:18.278Z,1.40
2019-01-14T06:54:47.443Z,1.40
2019-01-14T06:57:16.812Z,1.40
2019-01-14T06:59:49.002Z,1.50
2019-01-14T07:02:18.409Z,1.50
2019-01-14T07:04:50.308Z,1.50
2019-01-14T07:07:25.441Z,1.50
2019-01-14T07:09:59.581Z,1.60
2019-01-14T07:12:28.592Z,1.70
2019-01-14T07:14:57.582Z,1.80
2019-01-14T07:17:26.620Z,1.90
2019-01-14T07:19:55.789Z,1.90
2019-01-14T07:22:24.830Z,1.80
2019-01-14T07:24:59.145Z,1.70
2019-01-14T07:27:28.170Z,1.70
2019-01-14T07:29:57.169Z,1.70
2019-01-14T07:32:26.547Z,1.70
2019-01-14T07:34:56.049Z,1.70
2019-01-14T07:37:25.521Z,1.80
2019-01-14T07:39:54.510Z,1.80
2019-01-14T07:42:23.645Z,1.80
2019-01-14T07:44:52.581Z,1.90
2019-01-14T07:47:21.728Z,1.90
2019-01-14T07:49:52.940Z,1.90
2019-01-14T07:52:22.539Z,1.80
2019-01-14T07:54:51.441Z,1.80
2019-01-14T07:57:22.358Z,1.70
2019-01-14T07:59:51.337Z,1.70
2019-01-14T08:02:20.592Z,1.50
2019-01-14T08:04:49.941Z,1.30
2019-01-14T08:07:19.843Z,1.20
2019-01-14T08:09:50.048Z,1.30
2019-01-14T08:12:21.289Z,1.20
2019-01-14T08:14:50.593Z,1.10
2019-01-14T08:17:19.572Z,1.00
2019-01-14T08:19:49.303Z,0.90
2019-01-14T08:22:19.403Z,0.80
2019-01-14T08:24:48.636Z,0.70
2019-01-14T08:27:17.488Z,0.60
2019-01-14T08:29:46.438Z,0.60
2019-01-14T08:32:15.424Z,0.60
2019-01-14T08:34:54.457Z,0.60
2019-01-14T08:37:23.613Z,0.60
2019-01-14T08:39:52.888Z,0.50
2019-01-14T08:42:22.085Z,0.40
2019-01-14T08:44:51.398Z,0.30
2019-01-14T08:47:20.865Z,0.30
2019-01-14T08:49:50.354Z,0.30
2019-01-14T08:52:19.418Z,0.30
2019-01-14T08:54:48.257Z,0.10
2019-01-14T08:57:17.179Z,0.10
2019-01-14T08:59:46.457Z,0.10
2019-01-14T09:02:15.396Z,0.00
2019-01-14T09:04:44.432Z,0.00
2019-01-14T09:07:13.477Z,-0.10
2019-01-14T09:09:42.420Z,-0.10
2019-01-14T09:12:11.333Z,-0.10
2019-01-14T09:14:40.470Z,-0.10
2019-01-14T09:17:09.842Z,-0.10
2019-01-14T09:19:39.200Z,-0.10
2019-01-14T09:22:09.327Z,0.00
2019-01-14T09:24:38.344Z,0.00
2019-01-14T09:27:07.622Z,0.10
2019-01-14T09:29:43.700Z,0.20
2019-01-14T09:32:14.138Z,0.40
2019-01-14T09:34:43.980Z,0.50
2019-01-14T09:37:12.839Z,0.50
2019-01-14T09:39:41.865Z,0.60
2019-01-14T09:42:10.890Z,0.60
2019-01-14T09:44:42.230Z,0.70
2019-01-14T09:47:11.968Z,0.70
2019-01-14T09:49:45.551Z,0.80
2019-01-14T09:52:12.474Z,0.90
2019-01-14T09:54:41.738Z,0.90
2019-01-14T09:57:10.644Z,0.90
2019-01-14T09:59:39.718Z,0.90
2019-01-14T10:02:08.697Z,1.00
2019-01-14T10:04:37.800Z,1.00
2019-01-14T10:07:06.954Z,1.20
2019-01-14T10:09:35.902Z,1.30
2019-01-14T10:12:06.351Z,1.30
2019-01-14T10:14:36.773Z,1.30
2019-01-14T10:17:05.837Z,1.30
2019-01-14T10:19:35.015Z,1.30
2019-01-14T10:22:04.314Z,1.20
2019-01-14T10:24:33.769Z,1.00
2019-01-14T10:27:02.825Z,0.90
2019-01-14T10:29:31.730Z,0.90
2019-01-14T10:32:00.742Z,0.90
2019-01-14T10:34:29.786Z,1.00
2019-01-14T10:36:58.933Z,1.10
2019-01-14T10:39:27.993Z,1.20
2019-01-14T10:41:57.185Z,1.30
2019-01-14T10:44:27.457Z,1.30
2019-01-14T10:46:56.701Z,1.40
2019-01-14T10:49:27.589Z,1.40
2019-01-14T10:51:56.563Z,1.40
2019-01-14T10:54:26.172Z,1.50
2019-01-14T10:56:55.241Z,1.40
2019-01-14T10:59:27.251Z,1.40
2019-01-14T11:01:56.793Z,1.40
2019-01-14T11:04:25.848Z,1.50
2019-01-14T11:06:55.701Z,1.50
2019-01-14T11:09:25.160Z,1.50
2019-01-14T11:11:54.191Z,1.50
2019-01-14T11:14:23.671Z,1.60
2019-01-14T11:16:52.963Z,1.70
2019-01-14T11:19:22.094Z,1.70
2019-01-14T11:22:22.046Z,1.70
2019-01-14T11:24:52.945Z,1.80
2019-01-14T11:27:22.144Z,1.80
2019-01-14T11:29:54.586Z,1.90
2019-01-14T11:32:24.086Z,1.90
2019-01-14T11:34:53.340Z,1.90
2019-01-14T11:37:22.255Z,1.70
2019-01-14T11:39:51.665Z,1.70
2019-01-14T11:42:21.292Z,1.60
2019-01-14T11:44:50.579Z,1.60
2019-01-14T11:47:19.562Z,1.70
2019-01-14T11:49:48.816Z,1.80
2019-01-14T11:52:18.049Z,1.90
2019-01-14T11:54:52.609Z,1.80
2019-01-14T11:57:21.581Z,1.80
2019-01-14T11:59:50.532Z,1.80
2019-01-14T12:02:19.757Z,1.80
2019-01-14T12:04:50.325Z,1.80
2019-01-14T12:07:19.287Z,1.90
2019-01-14T12:09:48.271Z,1.90
2019-01-14T12:12:17.270Z,2.00
2019-01-14T12:14:46.111Z,2.00
2019-01-14T12:17:14.954Z,2.00
2019-01-14T12:19:43.998Z,2.00
2019-01-14T12:22:12.945Z,2.00
2019-01-14T12:24:42.233Z,2.10
2019-01-14T12:27:11.865Z,2.10
2019-01-14T12:29:41.057Z,2.10
2019-01-14T12:32:10.032Z,2.10
2019-01-14T12:34:39.485Z,2.10
2019-01-14T12:37:08.549Z,2.10
2019-01-14T12:39:37.634Z,2.10
2019-01-14T12:42:06.860Z,2.10
2019-01-14T12:44:35.777Z,2.20
2019-01-14T12:47:04.726Z,2.20
2019-01-14T12:49:33.819Z,2.20
2019-01-14T12:52:04.747Z,2.20
2019-01-14T12:54:33.745Z,2.20
2019-01-14T12:57:03.152Z,2.20
2019-01-14T12:59:33.651Z,2.30
2019-01-14T13:02:02.755Z,2.20
2019-01-14T13:04:36.030Z,2.20
2019-01-14T13:07:05.062Z,2.20
2019-01-14T13:09:35.248Z,2.20
2019-01-14T13:12:04.345Z,2.30
2019-01-14T13:14:38.651Z,2.30
2019-01-14T13:17:07.534Z,2.30
2019-01-14T13:19:36.471Z,2.30
2019-01-14T13:22:07.715Z,2.30
2019-01-14T13:24:43.271Z,2.30
2019-01-14T13:27:12.265Z,2.30
2019-01-14T13:29:41.233Z,2.30
2019-01-14T13:32:10.205Z,2.30
2019-01-14T13:34:39.309Z,2.30
2019-01-14T13:37:08.367Z,2.30
2019-01-14T13:39:37.381Z,2.30
2019-01-14T13:42:06.393Z,2.30
2019-01-14T13:44:36.447Z,2.30
2019-01-14T13:47:05.586Z,2.30
2019-01-14T13:49:34.469Z,2.30
2019-01-14T13:52:03.601Z,2.30
2019-01-14T13:54:32.523Z,2.30
2019-01-14T13:57:03.136Z,2.30
2019-01-14T13:59:32.244Z,2.20
2019-01-14T14:02:01.183Z,2.30
2019-01-14T14:04:30.145Z,2.20
2019-01-14T14:07:00.089Z,2.20
2019-01-14T14:09:29.012Z,2.20
2019-01-14T14:11:57.881Z,2.30
2019-01-14T14:14:26.880Z,2.20
2019-01-14T14:16:57.462Z,2.20
2019-01-14T14:19:26.714Z,2.20
2019-01-14T14:21:55.693Z,2.20
2019-01-14T14:24:25.570Z,2.30
2019-01-14T14:26:54.658Z,2.30
2019-01-14T14:29:23.737Z,2.30
2019-01-14T14:31:56.761Z,2.40
2019-01-14T14:34:26.268Z,2.40
2019-01-14T14:36:55.304Z,2.40
2019-01-14T14:39:25.685Z,2.30
2019-01-14T14:41:54.870Z,2.20
2019-01-14T14:44:34.617Z,2.30
2019-01-14T14:47:04.284Z,2.30
2019-01-14T14:49:33.344Z,2.30
2019-01-14T14:55:06.467Z,2.40
2019-01-14T14:57:36.172Z,2.30
2019-01-14T15:00:10.381Z,2.20
2019-01-14T15:02:39.393Z,2.20
2019-01-14T15:05:09.783Z,2.20
2019-01-14T15:07:38.797Z,2.20
2019-01-14T15:10:09.629Z,2.30
2019-01-14T15:12:41.014Z,2.30
2019-01-14T15:15:11.643Z,2.20
2019-01-14T15:17:41.550Z,2.20
2019-01-14T15:20:12.682Z,2.20
2019-01-14T15:22:41.765Z,2.30
2019-01-14T15:25:11.094Z,2.30
2019-01-14T15:27:40.062Z,2.30
2019-01-14T15:30:18.740Z,2.30
2019-01-14T15:32:47.686Z,2.40
2019-01-14T15:35:16.734Z,2.30
2019-01-14T15:37:46.019Z,2.40
2019-01-14T15:40:15.462Z,2.30
2019-01-14T15:42:45.936Z,2.40
2019-01-14T15:45:16.286Z,2.30
2019-01-14T15:47:45.343Z,2.30
2019-01-14T15:50:14.517Z,2.30
2019-01-14T15:52:43.621Z,2.30
2019-01-14T15:55:15.837Z,2.30
2019-01-14T15:57:45.910Z,2.30
2019-01-14T16:00:16.123Z,2.30
2019-01-14T16:02:45.156Z,2.20
2019-01-14T16:05:14.744Z,2.30
2019-01-14T16:07:43.846Z,2.30
2019-01-14T16:10:15.805Z,2.30
2019-01-14T16:12:47.192Z,2.40
2019-01-14T16:15:16.289Z,2.40
2019-01-14T16:17:47.592Z,2.50
2019-01-14T16:20:18.313Z,2.50
2019-01-14T16:22:47.590Z,2.60
2019-01-14T16:25:16.660Z,2.60
2019-01-14T16:27:45.645Z,2.50
2019-01-14T16:30:16.877Z,2.50
2019-01-14T16:32:53.483Z,2.50
2019-01-14T16:35:22.462Z,2.50
2019-01-14T16:37:51.508Z,2.50
2019-01-14T16:40:20.522Z,2.50
2019-01-14T16:42:50.451Z,2.40
2019-01-14T16:45:22.454Z,2.40
2019-01-14T16:47:52.197Z,2.40
2019-01-14T16:50:21.268Z,2.40
2019-01-14T16:53:25.017Z,2.40
2019-01-14T16:55:55.057Z,2.40
2019-01-14T16:58:24.150Z,2.40
2019-01-14T17:01:02.439Z,2.40
2019-01-14T17:03:43.216Z,2.40
2019-01-14T17:06:15.253Z,2.40
2019-01-14T17:08:44.534Z,2.40
2019-01-14T17:11:21.659Z,2.40
2019-01-14T17:13:50.773Z,2.40
2019-01-14T17:16:22.325Z,2.40
2019-01-14T17:18:51.497Z,2.50
2019-01-14T17:21:52.147Z,2.40
2019-01-14T17:24:46.637Z,2.40
2019-01-14T17:27:21.074Z,2.40
2019-01-14T17:29:52.853Z,2.40
2019-01-14T17:32:27.805Z,2.40
2019-01-14T17:35:01.127Z,2.40
2019-01-14T17:37:32.250Z,2.40
2019-01-14T17:40:01.297Z,2.40
2019-01-14T17:42:32.523Z,2.40
2019-01-14T17:45:21.938Z,2.40
2019-01-14T17:47:53.305Z,2.40
2019-01-14T17:50:30.806Z,2.40
2019-01-14T17:53:01.495Z,2.40
2019-01-14T17:55:34.122Z,2.40
2019-01-14T17:58:05.606Z,2.40
2019-01-14T18:00:34.763Z,2.40
2019-01-14T18:03:05.431Z,2.40
2019-01-14T18:05:34.675Z,2.40
2019-01-14T18:08:03.705Z,2.40
2019-01-14T18:10:39.884Z,2.40
2019-01-14T18:13:10.293Z,2.50
2019-01-14T18:15:43.479Z,2.50
2019-01-14T18:18:23.154Z,2.40
2019-01-14T18:21:05.519Z,2.50
2019-01-14T18:23:41.275Z,2.40
2019-01-14T18:26:14.439Z,2.40
2019-01-14T18:28:47.785Z,2.30
2019-01-14T18:31:24.859Z,2.30
2019-01-14T18:34:12.670Z,2.30
2019-01-14T18:36:45.656Z,2.40
2019-01-14T18:39:20.408Z,2.40
2019-01-14T18:42:00.305Z,2.50
2019-01-14T18:44:50.610Z,2.50
2019-01-14T18:47:23.922Z,2.40
2019-01-14T18:50:18.626Z,2.40
2019-01-14T18:55:49.944Z,2.40
2019-01-14T18:58:40.474Z,2.40
2019-01-14T19:01:18.278Z,2.30
2019-01-14T19:04:01.111Z,2.40
2019-01-14T19:09:58.438Z,2.50
2019-01-14T19:13:08.974Z,2.40
2019-01-14T19:15:43.838Z,2.40
2019-01-14T19:18:27.650Z,2.40
2019-01-14T19:21:43.345Z,2.30
2019-01-14T19:24:44.487Z,2.30
2019-01-14T19:27:25.369Z,2.30
2019-01-14T19:30:12.877Z,2.30
2019-01-14T19:32:43.161Z,2.40
2019-01-14T19:35:28.210Z,2.40
2019-01-14T19:37:59.702Z,2.40
2019-01-14T19:40:50.461Z,2.40
2019-01-14T19:43:30.480Z,2.40
2019-01-14T19:46:13.070Z,2.40
2019-01-14T19:48:42.839Z,2.40
2019-01-14T19:51:14.338Z,2.50
2019-01-14T19:53:47.645Z,2.40
2019-01-14T19:56:18.839Z,2.50
2019-01-14T19:58:48.143Z,2.40
2019-01-14T20:01:19.175Z,2.40
2019-01-14T20:03:49.797Z,2.40
2019-01-14T20:06:21.951Z,2.40
2019-01-14T20:08:52.717Z,2.40
2019-01-14T20:11:28.951Z,2.40
2019-01-14T20:14:18.847Z,2.50
2019-01-14T20:16:47.887Z,2.50
2019-01-14T20:19:19.950Z,2.60
2019-01-14T20:21:53.686Z,2.60
2019-01-14T20:24:33.741Z,2.50
2019-01-14T20:27:07.202Z,2.50
2019-01-14T20:30:02.937Z,2.60
2019-01-14T20:32:47.738Z,2.60
2019-01-14T20:35:23.993Z,2.60
2019-01-14T20:37:56.033Z,2.60
2019-01-14T20:40:27.437Z,2.50
2019-01-14T20:42:59.789Z,2.50
2019-01-14T20:45:33.304Z,2.50
2019-01-14T20:48:08.411Z,2.50
2019-01-14T20:50:40.529Z,2.50
2019-01-14T20:53:16.668Z,2.60
2019-01-14T20:56:08.177Z,2.50
2019-01-14T20:58:40.128Z,2.50
2019-01-14T21:01:10.381Z,2.50
2019-01-14T21:03:43.604Z,2.60
2019-01-14T21:06:15.922Z,2.60
2019-01-14T21:09:10.450Z,2.60
2019-01-14T21:12:06.392Z,2.50
2019-01-14T21:14:43.954Z,2.50
2019-01-14T21:17:17.375Z,2.60
2019-01-14T21:27:21.206Z,2.50
2019-01-14T21:30:20.424Z,2.50
2019-01-14T21:36:36.276Z,2.60
2019-01-14T21:43:24.816Z,2.50
2019-01-14T21:49:41.278Z,2.50
2019-01-14T21:55:55.246Z,2.50
2019-01-14T21:58:47.449Z,2.50
2019-01-14T22:01:36.319Z,2.50
2019-01-14T22:04:49.162Z,2.50
2019-01-14T22:07:28.143Z,2.40
2019-01-14T22:10:22.803Z,2.50
2019-01-14T22:13:02.320Z,2.40
2019-01-14T22:16:00.756Z,2.50
2019-01-14T22:18:33.244Z,2.50
2019-01-14T22:21:14.235Z,2.40
2019-01-14T22:23:55.054Z,2.40
2019-01-14T22:26:31.139Z,2.50
2019-01-14T22:29:16.112Z,2.50
2019-01-14T22:32:28.249Z,2.50
2019-01-14T22:35:33.402Z,2.40
2019-01-14T22:38:19.590Z,2.40
2019-01-14T22:40:53.624Z,2.40
2019-01-14T22:44:05.428Z,2.40
2019-01-14T22:47:01.391Z,2.40
2019-01-14T22:49:10.130Z,2.40
2019-01-14T22:51:40.135Z,2.50
2019-01-14T22:54:30.071Z,2.50
2019-01-14T22:57:01.265Z,2.40
2019-01-14T22:59:35.200Z,2.40
2019-01-14T23:02:07.962Z,2.40
2019-01-14T23:04:43.335Z,2.30
2019-01-14T23:07:14.732Z,2.30
2019-01-14T23:09:46.636Z,2.30
2019-01-14T23:12:15.773Z,2.30
2019-01-14T23:14:47.278Z,2.30
2019-01-14T23:17:16.526Z,2.30
2019-01-14T23:19:45.892Z,2.30
2019-01-14T23:22:16.434Z,2.30
2019-01-14T23:24:45.809Z,2.30
2019-01-14T23:27:17.760Z,2.30
2019-01-14T23:29:48.449Z,2.40
2019-01-14T23:32:22.011Z,2.40
2019-01-14T23:34:53.309Z,2.40
2019-01-14T23:37:26.309Z,2.30
2019-01-14T23:39:59.453Z,2.40
2019-01-14T23:42:37.558Z,2.40
2019-01-14T23:45:07.767Z,2.40
2019-01-14T23:47:39.109Z,2.30
2019-01-14T23:50:13.435Z,2.40
2019-01-14T23:52:42.637Z,2.50
2019-01-14T23:55:13.477Z,2.50
2019-01-14T23:57:42.362Z,2.50
